createdAt,value
2023-02-14T00:01:39.299Z,100205.66
2023-02-14T00:04:08.198Z,100209.89
2023-02-14T00:06:39.938Z,100207.40
2023-02-14T00:09:14.913Z,100216.91
2023-02-14T00:11:49.940Z,100215.97
2023-02-14T00:14:38.221Z,100211.16
2023-02-14T00:17:07.035Z,100204.60
2023-02-14T00:19:37.308Z,100199.31
2023-02-14T00:22:06.425Z,100204.08
2023-02-14T00:24:35.521Z,100204.11
2023-02-14T00:27:04.606Z,100197.73
2023-02-14T00:29:33.668Z,100200.58
2023-02-14T00:32:03.349Z,100203.93
2023-02-14T00:34:33.636Z,100204.66
2023-02-14T00:37:19.045Z,100194.44
2023-02-14T00:39:48.019Z,100187.19
2023-02-14T00:42:16.759Z,100185.21
2023-02-14T00:44:47.487Z,100183.19
2023-02-14T00:47:16.233Z,100181.98
2023-02-14T00:49:44.725Z,100172.64
2023-02-14T00:52:12.935Z,100175.48
2023-02-14T00:54:42.126Z,100174.02
2023-02-14T00:57:10.568Z,100177.91
2023-02-14T00:59:39.816Z,100174.02
2023-02-14T01:02:08.672Z,100170.10
2023-02-14T01:04:37.102Z,100167.67
2023-02-14T01:07:06.106Z,100166.15
2023-02-14T01:09:34.165Z,100162.80
2023-02-14T01:12:04.230Z,100162.44
2023-02-14T01:14:32.399Z,100169.44
2023-02-14T01:17:02.656Z,100171.10
2023-02-14T01:19:31.454Z,100166.15
2023-02-14T01:22:01.639Z,100164.75
2023-02-14T01:24:30.353Z,100168.46
2023-02-14T01:27:01.802Z,100159.29
2023-02-14T01:29:30.541Z,100155.57
2023-02-14T01:31:58.677Z,100160.39
2023-02-14T01:34:48.087Z,100152.65
2023-02-14T01:37:16.389Z,100144.91
2023-02-14T01:39:45.232Z,100137.30
2023-02-14T01:42:16.217Z,100136.27
2023-02-14T01:44:47.831Z,100126.39
2023-02-14T01:47:17.000Z,100122.61
2023-02-14T01:49:53.100Z,100108.39
2023-02-14T01:52:35.497Z,100104.31
2023-02-14T01:55:09.409Z,100099.67
2023-02-14T01:57:38.851Z,100093.11
2023-02-14T02:00:26.419Z,100083.36
2023-02-14T02:02:56.269Z,100083.38
2023-02-14T02:05:24.587Z,100072.96
2023-02-14T02:07:52.993Z,100067.69
2023-02-14T02:10:21.501Z,100067.69
2023-02-14T02:12:51.620Z,100074.10
2023-02-14T02:15:22.011Z,100082.25
2023-02-14T02:18:07.352Z,100095.70
2023-02-14T02:20:53.998Z,100094.83
2023-02-14T02:23:39.841Z,100082.83
2023-02-14T02:26:27.136Z,100074.79
2023-02-14T02:29:16.302Z,100071.59
2023-02-14T02:32:21.956Z,100076.57
2023-02-14T02:35:20.725Z,100072.48
2023-02-14T02:38:14.480Z,100069.85
2023-02-14T02:41:24.464Z,100066.50
2023-02-14T02:44:03.441Z,100059.98
2023-02-14T02:46:48.143Z,100061.44
2023-02-14T02:49:56.742Z,100060.41
2023-02-14T02:53:13.273Z,100059.08
2023-02-14T02:56:38.272Z,100067.13
2023-02-14T02:59:18.335Z,100061.72
2023-02-14T03:01:53.853Z,100058.16
2023-02-14T03:04:41.716Z,100072.63
2023-02-14T03:07:28.438Z,100080.08
2023-02-14T03:14:30.169Z,100085.58
2023-02-14T03:17:05.557Z,100091.60
2023-02-14T03:20:16.031Z,100099.58
2023-02-14T03:22:50.215Z,100096.09
2023-02-14T03:25:25.618Z,100089.90
2023-02-14T03:28:32.499Z,100099.11
2023-02-14T03:31:20.983Z,100112.75
2023-02-14T03:34:09.626Z,100112.86
2023-02-14T03:36:41.275Z,100111.81
2023-02-14T03:39:14.336Z,100115.05
2023-02-14T03:41:50.270Z,100115.82
2023-02-14T03:44:20.200Z,100123.29
2023-02-14T03:46:51.734Z,100124.05
2023-02-14T03:49:22.470Z,100127.79
2023-02-14T03:51:51.436Z,100127.64
2023-02-14T03:54:19.540Z,100129.24
2023-02-14T03:56:53.329Z,100132.47
2023-02-14T03:59:25.692Z,100135.84
2023-02-14T04:02:07.696Z,100130.04
2023-02-14T04:04:39.836Z,100134.98
2023-02-14T04:07:17.374Z,100140.27
2023-02-14T04:09:49.624Z,100139.17
2023-02-14T04:12:32.376Z,100142.55
2023-02-14T04:15:07.618Z,100137.42
2023-02-14T04:18:02.170Z,100124.36
2023-02-14T04:20:34.590Z,100120.66
2023-02-14T04:23:04.998Z,100119.76
2023-02-14T04:25:36.343Z,100115.88
2023-02-14T04:28:06.220Z,100107.37
2023-02-14T04:30:37.253Z,100113.30
2023-02-14T04:33:11.036Z,100123.01
2023-02-14T04:35:42.288Z,100122.84
2023-02-14T04:38:12.608Z,100137.30
2023-02-14T04:40:43.835Z,100149.14
2023-02-14T04:43:15.613Z,100155.70
2023-02-14T04:45:47.678Z,100158.89
2023-02-14T04:48:19.167Z,100159.77
2023-02-14T04:50:56.665Z,100162.23
2023-02-14T04:53:27.705Z,100168.95
2023-02-14T04:55:58.504Z,100171.77
2023-02-14T04:58:29.718Z,100170.89
2023-02-14T05:01:00.582Z,100172.85
2023-02-14T05:11:08.458Z,100196.02
2023-02-14T05:13:36.777Z,100204.16
2023-02-14T05:16:08.697Z,100202.04
2023-02-14T05:18:36.831Z,100194.45
2023-02-14T05:21:05.565Z,100198.52
2023-02-14T05:23:33.519Z,100197.10
2023-02-14T05:26:01.546Z,100198.33
2023-02-14T05:28:30.024Z,100191.62
2023-02-14T05:30:59.084Z,100195.68
2023-02-14T05:33:28.434Z,100193.92
2023-02-14T05:35:59.954Z,100200.29
2023-02-14T05:38:28.299Z,100197.98
2023-02-14T05:40:56.998Z,100199.73
2023-02-14T05:43:26.408Z,100204.86
2023-02-14T05:45:58.093Z,100196.20
2023-02-14T05:48:26.286Z,100197.08
2023-02-14T05:50:54.524Z,100204.14
2023-02-14T05:53:23.810Z,100208.18
2023-02-14T05:55:52.013Z,100212.27
2023-02-14T05:58:20.354Z,100211.02
2023-02-14T06:00:48.557Z,100217.89
2023-02-14T06:03:18.511Z,100212.24
2023-02-14T06:05:47.195Z,100216.48
2023-02-14T06:08:15.323Z,100218.39
2023-02-14T06:10:43.523Z,100208.12
2023-02-14T06:13:12.000Z,100212.88
2023-02-14T06:15:41.173Z,100210.94
2023-02-14T06:18:09.337Z,100215.19
2023-02-14T06:20:37.812Z,100216.78
2023-02-14T06:23:06.413Z,100213.93
2023-02-14T06:25:36.980Z,100219.21
2023-02-14T06:28:10.642Z,100219.58
2023-02-14T06:30:40.641Z,100220.80
2023-02-14T06:33:09.072Z,100221.36
2023-02-14T06:35:37.478Z,100224.87
2023-02-14T06:38:05.634Z,100231.33
2023-02-14T06:40:33.682Z,100232.36
2023-02-14T06:43:01.965Z,100232.54
2023-02-14T06:45:30.112Z,100238.88
2023-02-14T06:48:00.180Z,100231.33
2023-02-14T06:50:28.568Z,100235.23
2023-02-14T06:52:57.044Z,100237.35
2023-02-14T06:55:25.519Z,100238.23
2023-02-14T06:57:56.182Z,100233.46
2023-02-14T07:00:25.145Z,100234.53
2023-02-14T07:02:53.864Z,100236.29
2023-02-14T07:05:22.132Z,100238.77
2023-02-14T07:07:53.980Z,100241.05
2023-02-14T07:10:22.354Z,100243.35
2023-02-14T07:12:50.717Z,100248.30
2023-02-14T07:15:19.124Z,100245.33
2023-02-14T07:17:47.289Z,100234.57
2023-02-14T07:20:19.259Z,100234.58
2023-02-14T07:22:47.724Z,100236.19
2023-02-14T07:25:16.187Z,100235.65
2023-02-14T07:27:44.576Z,100232.95
2023-02-14T07:30:13.953Z,100224.41
2023-02-14T07:32:42.183Z,100222.42
2023-02-14T07:35:10.938Z,100223.63
2023-02-14T07:37:39.441Z,100214.58
2023-02-14T07:40:14.339Z,100217.17
2023-02-14T07:42:43.780Z,100212.14
2023-02-14T07:45:21.894Z,100216.66
2023-02-14T07:47:51.684Z,100216.51
2023-02-14T07:50:20.763Z,100217.92
2023-02-14T07:52:49.105Z,100223.73
2023-02-14T07:55:17.541Z,100220.91
2023-02-14T07:57:48.313Z,100213.73
2023-02-14T08:00:17.052Z,100224.20
2023-02-14T08:02:45.494Z,100216.27
2023-02-14T08:05:15.114Z,100221.23
2023-02-14T08:07:44.441Z,100221.45
2023-02-14T08:10:13.251Z,100222.48
2023-02-14T08:13:00.437Z,100211.27
2023-02-14T08:15:51.505Z,100213.92
2023-02-14T08:18:21.120Z,100210.45
2023-02-14T08:20:50.011Z,100208.55
2023-02-14T08:23:18.950Z,100207.86
2023-02-14T08:25:51.900Z,100207.29
2023-02-14T08:28:23.241Z,100206.88
2023-02-14T08:30:52.688Z,100214.07
2023-02-14T08:33:20.820Z,100219.70
2023-02-14T08:35:49.780Z,100222.16
2023-02-14T08:38:17.919Z,100219.87
2023-02-14T08:40:46.382Z,100220.96
2023-02-14T08:43:14.828Z,100224.90
2023-02-14T08:46:55.364Z,100234.41
2023-02-14T08:49:24.227Z,100227.73
2023-02-14T08:51:52.341Z,100228.21
2023-02-14T08:54:20.773Z,100222.88
2023-02-14T08:56:48.913Z,100219.36
2023-02-14T08:59:17.241Z,100227.33
2023-02-14T09:01:46.321Z,100228.73
2023-02-14T09:04:19.015Z,100226.06
2023-02-14T09:06:47.647Z,100226.02
2023-02-14T09:09:17.629Z,100220.49
2023-02-14T09:11:47.023Z,100220.10
2023-02-14T09:14:23.692Z,100224.48
2023-02-14T09:16:53.965Z,100229.02
2023-02-14T09:19:22.148Z,100228.82
2023-02-14T09:21:50.282Z,100233.95
2023-02-14T09:24:39.089Z,100233.63
2023-02-14T09:27:07.508Z,100235.25
2023-02-14T09:29:36.388Z,100240.95
2023-02-14T09:32:06.895Z,100238.16
2023-02-14T09:34:36.737Z,100234.49
2023-02-14T09:37:06.469Z,100232.09
2023-02-14T09:39:36.596Z,100225.22
2023-02-14T09:42:46.525Z,100217.98
2023-02-14T09:45:41.162Z,100230.01
2023-02-14T09:48:26.095Z,100225.76
2023-02-14T09:51:01.370Z,100216.96
2023-02-14T09:53:35.667Z,100208.33
2023-02-14T09:56:08.270Z,100214.17
2023-02-14T09:58:59.286Z,100218.76
2023-02-14T10:01:32.806Z,100215.05
2023-02-14T10:04:01.369Z,100223.02
2023-02-14T10:06:39.056Z,100221.27
2023-02-14T10:09:33.396Z,100226.56
2023-02-14T10:12:01.591Z,100217.87
2023-02-14T10:14:31.023Z,100208.52
2023-02-14T10:17:12.722Z,100208.90
2023-02-14T10:19:43.436Z,100206.77
2023-02-14T10:22:14.698Z,100201.42
2023-02-14T10:24:48.983Z,100208.77
2023-02-14T10:27:31.850Z,100206.41
2023-02-14T10:30:00.576Z,100208.46
2023-02-14T10:32:46.922Z,100208.04
2023-02-14T10:35:48.814Z,100203.72
2023-02-14T10:38:47.575Z,100198.55
2023-02-14T10:41:40.351Z,100201.20
2023-02-14T10:44:19.744Z,100190.77
2023-02-14T10:46:53.396Z,100196.23
2023-02-14T10:49:30.582Z,100188.65
2023-02-14T10:52:17.962Z,100187.86
2023-02-14T10:54:52.123Z,100194.65
2023-02-14T11:00:27.772Z,100200.41
2023-02-14T11:02:58.531Z,100186.84
2023-02-14T11:05:28.594Z,100181.42
2023-02-14T11:07:58.360Z,100185.23
2023-02-14T11:10:27.680Z,100186.43
2023-02-14T11:12:54.566Z,100180.77
2023-02-14T11:15:24.220Z,100183.80
2023-02-14T11:18:10.214Z,100180.55
2023-02-14T11:20:37.361Z,100177.06
2023-02-14T11:23:18.420Z,100173.76
2023-02-14T11:25:50.159Z,100171.70
2023-02-14T11:28:17.255Z,100173.33
2023-02-14T11:30:45.175Z,100173.72
2023-02-14T11:33:28.266Z,100173.54
2023-02-14T11:35:55.168Z,100175.48
2023-02-14T11:38:29.936Z,100177.05
2023-02-14T11:40:57.141Z,100177.21
2023-02-14T11:43:36.637Z,100173.73
2023-02-14T11:46:12.357Z,100167.92
2023-02-14T11:49:00.845Z,100170.74
2023-02-14T11:51:52.446Z,100171.11
2023-02-14T11:54:35.571Z,100174.08
2023-02-14T11:57:13.074Z,100169.42
2023-02-14T11:59:44.793Z,100174.74
2023-02-14T12:02:37.623Z,100169.62
2023-02-14T12:05:15.608Z,100175.23
2023-02-14T12:07:43.106Z,100177.27
2023-02-14T12:10:15.128Z,100166.84
2023-02-14T12:12:55.523Z,100160.30
2023-02-14T12:15:33.947Z,100165.43
2023-02-14T12:18:36.987Z,100169.30
2023-02-14T12:21:19.392Z,100166.94
2023-02-14T12:24:11.972Z,100170.58
2023-02-14T12:26:54.864Z,100161.00
2023-02-14T12:29:35.948Z,100161.53
2023-02-14T12:32:18.422Z,100163.41
2023-02-14T12:34:46.853Z,100168.52
2023-02-14T12:37:19.425Z,100162.54
2023-02-14T12:40:20.995Z,100165.41
2023-02-14T12:43:12.364Z,100176.79
2023-02-14T12:46:17.071Z,100174.60
2023-02-14T12:48:50.871Z,100170.41
2023-02-14T12:51:29.907Z,100169.58
2023-02-14T12:54:02.555Z,100175.80
2023-02-14T13:05:19.390Z,100179.08
2023-02-14T13:08:23.181Z,100188.98
2023-02-14T13:11:18.002Z,100186.89
2023-02-14T13:14:38.007Z,100199.49
2023-02-14T13:17:11.148Z,100190.03
2023-02-14T13:20:17.362Z,100199.08
2023-02-14T13:22:45.816Z,100207.91
2023-02-14T13:25:41.027Z,100213.38
2023-02-14T13:28:13.045Z,100218.85
2023-02-14T13:30:43.289Z,100217.42
2023-02-14T13:33:25.294Z,100221.48
2023-02-14T13:35:56.193Z,100223.77
2023-02-14T13:38:24.854Z,100227.66
2023-02-14T13:41:01.360Z,100227.33
2023-02-14T13:43:48.482Z,100230.20
2023-02-14T13:46:38.265Z,100245.56
2023-02-14T13:49:24.553Z,100238.69
2023-02-14T13:51:55.063Z,100247.89
2023-02-14T13:54:41.417Z,100238.02
2023-02-14T13:57:34.343Z,100253.20
2023-02-14T14:00:19.044Z,100259.89
2023-02-14T14:02:47.977Z,100265.36
2023-02-14T14:05:35.543Z,100260.95
2023-02-14T14:08:28.387Z,100269.60
2023-02-14T14:11:04.271Z,100268.90
2023-02-14T14:13:42.099Z,100273.30
2023-02-14T14:16:29.105Z,100275.96
2023-02-14T14:18:58.794Z,100269.61
2023-02-14T14:22:05.216Z,100285.09
2023-02-14T14:24:41.496Z,100298.32
2023-02-14T14:27:17.825Z,100296.55
2023-02-14T14:29:56.170Z,100294.25
2023-02-14T14:32:27.290Z,100301.28
2023-02-14T14:35:01.441Z,100305.69
2023-02-14T14:37:32.480Z,100308.33
2023-02-14T14:40:03.148Z,100318.73
2023-02-14T14:42:36.981Z,100319.10
2023-02-14T14:45:08.293Z,100319.27
2023-02-14T14:47:44.544Z,100325.96
2023-02-14T14:50:24.903Z,100334.42
2023-02-14T14:52:57.937Z,100336.70
2023-02-14T14:55:30.907Z,100349.55
2023-02-14T14:58:00.956Z,100359.40
2023-02-14T15:00:31.646Z,100360.77
2023-02-14T15:03:18.570Z,100364.22
2023-02-14T15:05:49.495Z,100366.48
2023-02-14T15:08:21.303Z,100373.63
2023-02-14T15:10:54.580Z,100378.18
2023-02-14T15:13:49.731Z,100384.30
2023-02-14T15:16:22.655Z,100386.02
2023-02-14T15:18:52.458Z,100390.39
2023-02-14T15:21:20.793Z,100392.30
2023-02-14T15:23:50.553Z,100389.78
2023-02-14T15:26:31.663Z,100390.64
2023-02-14T15:29:02.965Z,100400.52
2023-02-14T15:31:35.257Z,100399.98
2023-02-14T15:34:05.396Z,100403.48
2023-02-14T15:36:34.360Z,100404.54
2023-02-14T15:39:05.024Z,100406.31
2023-02-14T15:41:36.247Z,100405.78
2023-02-14T15:44:05.031Z,100414.02
2023-02-14T15:46:38.130Z,100422.27
2023-02-14T15:49:09.239Z,100423.67
2023-02-14T15:51:37.570Z,100432.99
2023-02-14T15:54:08.401Z,100433.66
2023-02-14T15:56:41.998Z,100439.98
2023-02-14T15:59:17.326Z,100443.80
2023-02-14T16:02:02.618Z,100451.52
2023-02-14T16:04:32.816Z,100464.04
2023-02-14T16:07:24.984Z,100465.77
2023-02-14T16:10:25.085Z,100462.85
2023-02-14T16:12:57.412Z,100466.77
2023-02-14T16:15:28.250Z,100469.42
2023-02-14T16:17:56.773Z,100477.55
2023-02-14T16:20:34.349Z,100476.64
2023-02-14T16:23:19.444Z,100478.55
2023-02-14T16:25:47.960Z,100478.92
2023-02-14T16:28:16.436Z,100491.54
2023-02-14T16:30:46.167Z,100493.98
2023-02-14T16:33:21.161Z,100499.58
2023-02-14T16:35:50.061Z,100501.67
2023-02-14T16:38:19.524Z,100502.52
2023-02-14T16:40:52.835Z,100512.19
2023-02-14T16:43:22.055Z,100516.99
2023-02-14T16:45:50.486Z,100520.02
2023-02-14T16:48:18.754Z,100516.63
2023-02-14T16:50:47.720Z,100529.05
2023-02-14T16:53:36.366Z,100530.63
2023-02-14T16:56:04.944Z,100536.21
2023-02-14T16:58:34.989Z,100539.69
2023-02-14T17:01:04.076Z,100543.36
2023-02-14T17:03:32.948Z,100546.16
2023-02-14T17:06:01.081Z,100547.05
2023-02-14T17:08:29.402Z,100554.05
2023-02-14T17:10:58.204Z,100557.40
2023-02-14T17:13:27.290Z,100560.01
2023-02-14T17:15:56.324Z,100563.34
2023-02-14T17:18:25.021Z,100568.84
2023-02-14T17:20:54.284Z,100572.90
2023-02-14T17:23:24.505Z,100573.07
2023-02-14T17:25:52.822Z,100574.27
2023-02-14T17:28:21.568Z,100577.00
2023-02-14T17:30:49.838Z,100574.71
2023-02-14T17:33:20.178Z,100572.95
2023-02-14T17:35:49.474Z,100578.42
2023-02-14T17:38:18.708Z,100585.80
2023-02-14T17:40:46.850Z,100582.73
2023-02-14T17:43:15.592Z,100581.98
2023-02-14T17:45:43.916Z,100586.54
2023-02-14T17:48:12.893Z,100587.09
2023-02-14T17:50:41.036Z,100588.52
2023-02-14T17:53:09.669Z,100592.59
2023-02-14T17:55:39.510Z,100595.23
2023-02-14T17:58:07.681Z,100595.20
2023-02-14T18:00:36.029Z,100598.11
2023-02-14T18:03:04.266Z,100596.11
2023-02-14T18:05:36.633Z,100599.53
2023-02-14T18:08:06.331Z,100602.61
2023-02-14T18:10:34.993Z,100609.39
2023-02-14T18:13:03.489Z,100613.24
2023-02-14T18:15:32.339Z,100612.33
2023-02-14T18:18:01.015Z,100613.35
2023-02-14T18:20:30.148Z,100612.48
2023-02-14T18:22:58.475Z,100616.92
2023-02-14T18:25:26.715Z,100620.85
2023-02-14T18:27:55.090Z,100621.95
2023-02-14T18:30:24.250Z,100626.05
2023-02-14T18:32:53.796Z,100625.73
2023-02-14T18:35:21.932Z,100629.31
2023-02-14T18:37:50.564Z,100627.83
2023-02-14T18:40:20.775Z,100627.42
2023-02-14T18:42:49.248Z,100632.55
2023-02-14T18:45:17.741Z,100631.19
2023-02-14T18:47:45.918Z,100637.94
2023-02-14T18:50:14.219Z,100641.54
2023-02-14T18:52:42.912Z,100640.53
2023-02-14T18:55:13.618Z,100639.16
2023-02-14T18:57:42.108Z,100639.86
2023-02-14T19:00:12.181Z,100640.73
2023-02-14T19:02:40.545Z,100642.48
2023-02-14T19:05:09.312Z,100642.15
2023-02-14T19:07:38.301Z,100646.02
2023-02-14T19:10:07.606Z,100645.52
2023-02-14T19:12:36.070Z,100646.91
2023-02-14T19:15:06.284Z,100653.94
2023-02-14T19:17:39.117Z,100653.91
2023-02-14T19:20:09.106Z,100661.66
2023-02-14T19:22:41.422Z,100661.41
2023-02-14T19:25:10.461Z,100657.95
2023-02-14T19:27:39.996Z,100663.22
2023-02-14T19:30:10.836Z,100663.02
2023-02-14T19:32:39.015Z,100667.77
2023-02-14T19:35:07.875Z,100672.83
2023-02-14T19:37:36.183Z,100675.29
2023-02-14T19:40:06.518Z,100675.45
2023-02-14T19:42:35.779Z,100676.84
2023-02-14T19:45:05.535Z,100677.05
2023-02-14T19:47:46.286Z,100679.73
2023-02-14T19:50:16.110Z,100681.67
2023-02-14T19:52:44.874Z,100679.58
2023-02-14T19:55:20.979Z,100685.27
2023-02-14T19:57:49.532Z,100678.48
2023-02-14T20:00:18.569Z,100676.60
2023-02-14T20:02:48.318Z,100679.79
2023-02-14T20:05:20.087Z,100676.29
2023-02-14T20:15:30.703Z,100678.79
2023-02-14T20:18:02.689Z,100680.31
2023-02-14T20:20:51.146Z,100682.95
2023-02-14T20:23:19.905Z,100689.90
2023-02-14T20:25:48.998Z,100693.16
2023-02-14T20:28:18.515Z,100688.11
2023-02-14T20:30:47.175Z,100689.52
2023-02-14T20:33:16.002Z,100692.36
2023-02-14T20:35:45.083Z,100696.62
2023-02-14T20:38:15.203Z,100693.84
2023-02-14T20:40:44.909Z,100698.09
2023-02-14T20:43:14.506Z,100697.40
2023-02-14T20:45:42.878Z,100699.13
2023-02-14T20:48:11.188Z,100705.48
2023-02-14T20:50:41.304Z,100702.85
2023-02-14T20:53:09.779Z,100704.28
2023-02-14T20:55:41.880Z,100706.05
2023-02-14T20:58:14.412Z,100712.74
2023-02-14T21:00:42.628Z,100716.12
2023-02-14T21:03:10.981Z,100720.18
2023-02-14T21:05:40.463Z,100719.11
2023-02-14T21:08:08.872Z,100724.59
2023-02-14T21:10:37.462Z,100723.23
2023-02-14T21:13:05.831Z,100724.59
2023-02-14T21:15:37.398Z,100722.23
2023-02-14T21:18:06.166Z,100719.31
2023-02-14T21:20:35.693Z,100722.45
2023-02-14T21:23:04.678Z,100723.29
2023-02-14T21:25:33.060Z,100724.14
2023-02-14T21:28:02.783Z,100723.89
2023-02-14T21:30:32.975Z,100729.27
2023-02-14T21:33:04.176Z,100734.31
2023-02-14T21:35:36.555Z,100735.41
2023-02-14T21:38:06.081Z,100736.75
2023-02-14T21:40:35.201Z,100738.94
2023-02-14T21:43:03.996Z,100744.84
2023-02-14T21:45:51.009Z,100743.39
2023-02-14T21:48:38.019Z,100743.42
2023-02-14T21:51:06.844Z,100746.65
2023-02-14T21:53:35.365Z,100745.07
2023-02-14T21:56:07.516Z,100745.06
2023-02-14T21:58:35.523Z,100742.23
2023-02-14T22:01:04.868Z,100740.59
2023-02-14T22:03:33.503Z,100741.92
2023-02-14T22:06:03.784Z,100743.41
2023-02-14T22:08:32.156Z,100748.75
2023-02-14T22:11:01.278Z,100748.00
2023-02-14T22:13:29.632Z,100750.66
2023-02-14T22:16:06.554Z,100754.58
2023-02-14T22:18:35.248Z,100759.94
2023-02-14T22:21:14.186Z,100757.79
2023-02-14T22:23:42.322Z,100756.33
2023-02-14T22:26:26.747Z,100758.40
2023-02-14T22:29:00.316Z,100759.30
2023-02-14T22:31:30.239Z,100751.77
2023-02-14T22:33:58.562Z,100754.27
2023-02-14T22:36:26.714Z,100752.77
2023-02-14T22:38:54.897Z,100751.79
2023-02-14T22:41:24.048Z,100746.82
2023-02-14T22:43:53.001Z,100746.93
2023-02-14T22:46:26.783Z,100748.98
2023-02-14T22:48:55.491Z,100746.80
2023-02-14T22:51:31.060Z,100747.38
2023-02-14T22:54:07.448Z,100745.02
2023-02-14T22:56:40.504Z,100744.95
2023-02-14T22:59:15.260Z,100748.40
2023-02-14T23:01:43.867Z,100746.59
2023-02-14T23:04:12.128Z,100745.76
2023-02-14T23:06:41.168Z,100740.06
2023-02-14T23:09:09.900Z,100742.48
2023-02-14T23:11:38.927Z,100742.33
2023-02-14T23:14:25.609Z,100743.02
2023-02-14T23:18:08.649Z,100754.66
2023-02-14T23:20:56.571Z,100743.31
2023-02-14T23:23:24.828Z,100748.21
2023-02-14T23:25:53.201Z,100753.02
2023-02-14T23:28:23.557Z,100752.02
2023-02-14T23:30:52.061Z,100754.87
2023-02-14T23:33:20.289Z,100752.82
2023-02-14T23:35:48.637Z,100757.98
2023-02-14T23:38:17.054Z,100763.64
2023-02-14T23:41:03.819Z,100764.91
2023-02-14T23:43:32.554Z,100766.54
2023-02-14T23:46:01.706Z,100770.80
2023-02-14T23:48:30.460Z,100773.66
2023-02-14T23:51:01.016Z,100778.42
2023-02-14T23:53:29.516Z,100781.80
2023-02-14T23:56:02.811Z,100784.81
2023-02-14T23:58:31.728Z,100785.02
